Time;durP1;ratioP1;P1;durP2;ratioP2;P2;SDS_P1;SDS_P2;PMS_P1;PMS_P2;Temp;Humidity;BMP_temperature;BMP_pressure;BME280_temperature;BME280_humidity;BME280_pressure;Samples;Min_cycle;Max_cycle;Signal;HPM_P1;HPM_P2
2022/09/03 00:02:44;;;;;;;9.30;2.83;;;;;;;18.89;46.21;100982.47;5040199;28;20041;-39
2022/09/03 00:05:15;;;;;;;5.88;3.05;;;;;;;18.90;46.09;100978.69;5037241;28;20435;-39
2022/09/03 00:07:48;;;;;;;10.80;3.20;;;;;;;18.94;45.78;100976.34;5038807;28;20029;-39
2022/09/03 00:10:22;;;;;;;9.00;2.65;;;;;;;18.85;45.81;100957.59;5040586;28;20114;-38
2022/09/03 00:12:48;;;;;;;5.15;2.90;;;;;;;18.92;45.87;100965.66;5036101;28;20044;-38
2022/09/03 00:15:17;;;;;;;6.22;2.90;;;;;;;18.89;45.86;100966.13;5039544;28;20047;-39
2022/09/03 00:17:54;;;;;;;7.15;2.70;;;;;;;18.89;45.57;100959.84;5039157;28;20065;-39
2022/09/03 00:20:30;;;;;;;10.20;3.10;;;;;;;18.90;45.85;100962.31;5042211;28;20091;-39
2022/09/03 00:23:00;;;;;;;11.02;3.10;;;;;;;18.87;45.98;100957.34;5040162;28;20033;-38
2022/09/03 00:25:37;;;;;;;12.13;3.20;;;;;;;18.83;46.27;100953.44;5042048;28;20430;-39
2022/09/03 00:28:06;;;;;;;10.02;3.00;;;;;;;18.81;46.76;100955.56;5024652;28;20037;-39
2022/09/03 00:30:32;;;;;;;10.90;2.92;;;;;;;18.79;46.88;100958.50;5038959;28;20033;-39
2022/09/03 00:32:58;;;;;;;13.13;3.35;;;;;;;18.75;47.00;100949.16;5021724;28;20134;-39
2022/09/03 00:35:37;;;;;;;19.23;3.38;;;;;;;18.70;47.45;100953.63;5037853;28;20052;-37
2022/09/03 00:38:02;;;;;;;6.68;3.38;;;;;;;18.65;47.80;100955.13;5036268;28;20055;-38
2022/09/03 00:40:38;;;;;;;7.38;2.85;;;;;;;18.60;47.41;100952.25;5038251;28;20030;-40
2022/09/03 00:43:17;;;;;;;5.30;3.00;;;;;;;18.60;47.80;100949.53;5033953;28;20598;-40
2022/09/03 00:45:53;;;;;;;8.90;3.00;;;;;;;18.59;47.72;100957.97;5037860;28;20026;-40
2022/09/03 00:48:21;;;;;;;10.40;2.95;;;;;;;18.55;47.88;100963.03;5037011;28;20029;-40
2022/09/03 00:51:12;;;;;;;13.20;3.05;;;;;;;18.56;48.06;100952.94;5039640;28;20108;-39
2022/09/03 00:53:53;;;;;;;8.45;3.00;;;;;;;18.51;48.35;100967.31;5023345;28;20063;-41
2022/09/03 00:56:36;;;;;;;5.10;2.88;;;;;;;18.45;48.41;100964.66;5023112;28;20076;-39
2022/09/03 00:59:18;;;;;;;9.80;3.25;;;;;;;18.38;48.48;100959.31;5023220;28;20060;-39
2022/09/03 01:01:55;;;;;;;4.90;2.90;;;;;;;18.37;48.56;100963.09;5040020;28;20036;-40
2022/09/03 01:04:47;;;;;;;11.90;3.03;;;;;;;18.39;48.60;100960.97;5039839;28;20039;-38
2022/09/03 01:07:17;;;;;;;6.82;3.13;;;;;;;18.31;48.77;100959.38;5040210;28;20026;-38
2022/09/03 01:09:52;;;;;;;6.15;3.13;;;;;;;18.32;48.83;100957.50;5039395;28;20515;-38
2022/09/03 01:12:40;;;;;;;3.95;2.90;;;;;;;18.31;48.79;100958.56;5040308;28;20026;-39
2022/09/03 01:15:22;;;;;;;6.68;2.80;;;;;;;18.30;49.09;100956.88;5038761;28;20034;-40
2022/09/03 01:18:08;;;;;;;5.50;2.97;;;;;;;18.28;49.08;100956.31;5039247;28;20030;-41
2022/09/03 01:20:51;;;;;;;4.75;3.05;;;;;;;18.27;49.63;100962.78;5021022;28;20033;-40
2022/09/03 01:23:34;;;;;;;5.45;3.33;;;;;;;18.15;49.49;100960.03;5038858;28;20171;-39
2022/09/03 01:26:37;;;;;;;9.85;2.97;;;;;;;18.10;49.63;100962.59;5040541;28;20033;-38
2022/09/03 01:29:11;;;;;;;4.63;2.97;;;;;;;18.10;49.72;100968.06;5039992;28;20040;-40
2022/09/03 01:31:48;;;;;;;9.80;2.97;;;;;;;18.08;49.78;100965.53;5038739;28;20046;-40
2022/09/03 01:34:28;;;;;;;8.77;3.05;;;;;;;18.09;49.94;100961.78;5040625;28;20041;-39
2022/09/03 01:37:01;;;;;;;11.75;3.10;;;;;;;18.08;49.80;100962.81;5040106;28;20056;-39
2022/09/03 01:39:52;;;;;;;7.43;2.95;;;;;;;18.07;49.89;100965.78;5022286;28;20188;-39
2022/09/03 01:42:24;;;;;;;10.23;3.25;;;;;;;18.03;49.39;100962.69;5006668;28;20087;-39
2022/09/03 01:45:10;;;;;;;12.40;3.17;;;;;;;18.02;49.63;100961.03;5038263;28;20044;-39
2022/09/03 01:48:00;;;;;;;8.57;2.85;;;;;;;18.04;49.77;100960.81;5039936;28;20033;-39
2022/09/03 01:50:56;;;;;;;8.82;3.30;;;;;;;18.01;49.55;100959.38;5039707;28;20048;-40
2022/09/03 01:53:45;;;;;;;9.88;3.35;;;;;;;18.06;48.87;100959.53;5038122;28;20025;-40
2022/09/03 01:56:21;;;;;;;11.20;3.10;;;;;;;18.10;48.79;100962.59;5005803;28;20243;-39
2022/09/03 01:58:58;;;;;;;7.65;3.03;;;;;;;18.07;49.21;100961.16;5024623;28;20262;-40
2022/09/03 02:01:29;;;;;;;6.82;3.20;;;;;;;18.02;48.84;100960.19;5039133;28;20033;-39
2022/09/03 02:03:58;;;;;;;7.80;3.20;;;;;;;18.00;48.87;100954.97;5038969;28;20051;-39
2022/09/03 02:06:30;;;;;;;8.50;2.92;;;;;;;17.95;49.07;100965.72;5039044;28;20111;-39
2022/09/03 02:08:56;;;;;;;6.45;3.45;;;;;;;17.95;49.13;100949.38;5035764;28;20143;-38
2022/09/03 02:11:21;;;;;;;8.40;3.47;;;;;;;17.93;48.87;100952.34;5040322;28;20029;-39
2022/09/03 02:13:49;;;;;;;5.38;2.58;;;;;;;17.88;48.85;100940.47;5038494;28;20048;-39
2022/09/03 02:16:19;;;;;;;5.53;3.25;;;;;;;17.93;48.76;100951.47;5039146;28;20464;-38
2022/09/03 02:18:50;;;;;;;12.35;3.20;;;;;;;17.87;48.85;100953.22;5020767;28;20112;-38
2022/09/03 02:21:21;;;;;;;9.02;3.55;;;;;;;17.85;48.91;100955.38;5037616;28;20041;-39
2022/09/03 02:23:47;;;;;;;5.75;3.40;;;;;;;17.89;48.89;100950.28;5039307;28;20029;-40
2022/09/03 02:26:16;;;;;;;11.90;3.28;;;;;;;17.85;48.83;100946.34;5038648;28;20043;-38
2022/09/03 02:28:41;;;;;;;8.77;3.30;;;;;;;17.83;49.11;100946.59;5038742;28;20048;-40
2022/09/03 02:31:07;;;;;;;6.15;3.42;;;;;;;17.77;49.36;100942.00;5040103;28;20029;-37
2022/09/03 02:33:36;;;;;;;13.45;3.40;;;;;;;17.73;49.48;100944.38;5039783;28;20056;-38
2022/09/03 02:36:03;;;;;;;12.38;3.35;;;;;;;17.71;49.36;100943.75;5038545;28;20037;-39
2022/09/03 02:38:29;;;;;;;8.63;3.20;;;;;;;17.64;49.56;100943.00;5038723;28;20045;-39
2022/09/03 02:40:54;;;;;;;7.03;3.38;;;;;;;17.60;49.81;100941.78;5038781;28;20108;-40
2022/09/03 02:43:40;;;;;;;9.80;3.35;;;;;;;17.65;49.50;100944.66;5038741;28;20503;-38
2022/09/03 02:46:09;;;;;;;12.02;3.60;;;;;;;17.63;49.70;100941.34;5038125;28;20157;-39
2022/09/03 02:48:34;;;;;;;13.15;3.22;;;;;;;17.59;49.94;100945.59;5039986;28;20064;-38
2022/09/03 02:51:00;;;;;;;7.45;3.40;;;;;;;17.49;50.27;100946.09;5039565;28;20051;-38
2022/09/03 02:53:27;;;;;;;9.88;3.08;;;;;;;17.48;50.30;100943.59;5040272;28;20072;-38
2022/09/03 02:55:57;;;;;;;9.50;3.67;;;;;;;17.44;50.58;100939.66;5039907;28;20056;-38
2022/09/03 02:58:23;;;;;;;7.45;3.50;;;;;;;17.42;50.60;100949.94;5038876;28;20029;-38
2022/09/03 03:00:48;;;;;;;9.77;3.60;;;;;;;17.42;50.78;100944.50;5039597;28;20032;-39
2022/09/03 03:03:14;;;;;;;9.38;3.58;;;;;;;17.36;50.75;100940.78;5039918;28;20021;-38
2022/09/03 03:05:42;;;;;;;14.90;4.40;;;;;;;17.40;50.82;100938.44;5039810;28;20516;-40
2022/09/03 03:08:07;;;;;;;14.27;3.50;;;;;;;17.34;50.93;100932.84;5034879;28;20549;-40
2022/09/03 03:10:34;;;;;;;9.27;3.70;;;;;;;17.25;51.29;100934.19;5039961;28;20030;-40
2022/09/03 03:12:59;;;;;;;6.55;3.50;;;;;;;17.19;51.04;100939.69;5038631;28;20133;-40
2022/09/03 03:15:26;;;;;;;7.55;3.42;;;;;;;17.18;51.56;100938.84;5032771;28;20147;-39
2022/09/03 03:17:55;;;;;;;6.10;3.35;;;;;;;17.22;51.40;100940.09;5032430;28;20548;-40
2022/09/03 03:20:20;;;;;;;5.65;3.30;;;;;;;17.19;51.66;100935.06;5040555;28;20129;-39
2022/09/03 03:22:45;;;;;;;5.68;3.47;;;;;;;17.11;51.78;100943.50;5043634;28;20033;-38
2022/09/03 03:25:11;;;;;;;13.60;4.03;;;;;;;17.10;51.67;100939.97;5043472;28;20045;-38
2022/09/03 03:27:38;;;;;;;8.40;4.10;;;;;;;17.00;51.94;100941.53;5043088;28;20036;-38
2022/09/03 03:30:08;;;;;;;13.52;3.80;;;;;;;17.02;51.99;100939.44;5041057;28;20033;-39
2022/09/03 03:32:37;;;;;;;6.35;3.15;;;;;;;17.03;52.14;100946.50;5043121;28;20065;-39
2022/09/03 03:35:03;;;;;;;9.93;3.83;;;;;;;16.91;52.08;100953.75;5043320;28;20037;-38
2022/09/03 03:37:29;;;;;;;5.10;3.28;;;;;;;16.91;52.47;100942.88;5025514;28;20030;-39
2022/09/03 03:39:55;;;;;;;12.02;3.78;;;;;;;16.89;52.52;100949.34;5042006;28;20036;-37
2022/09/03 03:42:20;;;;;;;11.15;4.10;;;;;;;16.86;52.44;100955.22;5042386;28;20038;-37
2022/09/03 03:44:45;;;;;;;5.93;3.05;;;;;;;16.89;52.40;100949.34;5030299;28;20113;-38
2022/09/03 03:47:11;;;;;;;7.93;3.53;;;;;;;16.96;52.33;100946.59;5042386;28;20026;-39
2022/09/03 03:49:36;;;;;;;13.73;4.15;;;;;;;16.96;52.40;100943.88;5042617;28;20034;-38
2022/09/03 03:52:03;;;;;;;12.73;3.60;;;;;;;16.96;52.43;100945.75;5042390;28;20033;-39
2022/09/03 03:54:28;;;;;;;12.38;3.45;;;;;;;17.00;52.23;100936.91;5013622;28;20037;-38
2022/09/03 03:56:53;;;;;;;9.30;3.67;;;;;;;16.94;52.68;100947.88;5035086;28;20056;-39
2022/09/03 03:59:19;;;;;;;10.05;3.85;;;;;;;16.98;52.39;100946.34;5033370;28;20044;-39
2022/09/03 04:01:44;;;;;;;7.97;3.63;;;;;;;16.94;52.18;100951.41;5025048;28;20041;-40
2022/09/03 04:04:10;;;;;;;5.95;3.90;;;;;;;16.88;52.56;100944.97;5035683;28;20420;-39
2022/09/03 04:06:36;;;;;;;11.25;3.55;;;;;;;16.87;52.63;100937.84;5031633;28;20109;-38
2022/09/03 04:09:02;;;;;;;10.05;3.63;;;;;;;16.93;52.62;100943.47;5038151;28;20041;-39
2022/09/03 04:11:27;;;;;;;6.88;3.33;;;;;;;16.97;52.44;100950.13;5039689;28;20364;-39
2022/09/03 04:13:53;;;;;;;8.65;3.72;;;;;;;16.98;52.54;100947.22;5042601;28;20440;-39
2022/09/03 04:16:23;;;;;;;9.50;3.95;;;;;;;17.03;52.33;100941.91;5038687;28;20022;-39
2022/09/03 04:18:49;;;;;;;19.10;4.00;;;;;;;17.03;52.18;100935.63;5033591;28;20110;-39
2022/09/03 04:21:26;;;;;;;10.10;3.83;;;;;;;16.91;52.64;100937.44;5037221;28;20033;-43
2022/09/03 04:23:52;;;;;;;10.30;3.75;;;;;;;16.89;52.76;100943.09;5025616;28;20362;-39
2022/09/03 04:26:32;;;;;;;11.25;3.80;;;;;;;16.87;52.78;100937.84;5032961;28;20033;-39
2022/09/03 04:28:59;;;;;;;8.82;3.53;;;;;;;16.84;52.82;100941.00;5022515;28;20029;-40
2022/09/03 04:31:25;;;;;;;6.60;3.72;;;;;;;16.73;53.11;100941.72;5026016;28;20033;-39
2022/09/03 04:33:50;;;;;;;11.25;4.45;;;;;;;16.72;53.29;100950.06;5032143;28;20402;-38
2022/09/03 04:36:21;;;;;;;8.95;3.83;;;;;;;16.71;53.26;100942.97;5028520;28;20025;-39
2022/09/03 04:38:48;;;;;;;10.55;3.92;;;;;;;16.73;53.12;100935.44;5039677;28;20084;-39
2022/09/03 04:41:16;;;;;;;6.35;3.70;;;;;;;16.70;53.25;100934.00;5031031;28;20026;-38
2022/09/03 04:43:42;;;;;;;13.20;3.83;;;;;;;16.64;53.49;100934.84;5026040;28;20060;-37
2022/09/03 04:46:10;;;;;;;9.90;3.47;;;;;;;16.69;53.17;100935.03;5005414;28;20029;-39
2022/09/03 04:48:36;;;;;;;11.18;4.18;;;;;;;16.62;53.22;100939.69;5034302;28;20093;-40
2022/09/03 04:51:10;;;;;;;8.50;3.88;;;;;;;16.54;53.43;100942.69;5031433;28;20067;-40
2022/09/03 04:53:40;;;;;;;6.93;4.07;;;;;;;16.46;53.51;100930.19;5041211;28;20033;-38
2022/09/03 04:56:13;;;;;;;6.80;3.85;;;;;;;16.48;53.62;100935.38;5041184;28;20071;-39
2022/09/03 04:58:38;;;;;;;15.80;4.28;;;;;;;16.44;53.94;100935.84;5025222;28;20042;-39
2022/09/03 05:01:08;;;;;;;10.23;4.65;;;;;;;16.48;53.53;100943.53;5031612;28;20033;-37
2022/09/03 05:03:33;;;;;;;9.60;4.25;;;;;;;16.42;53.82;100940.66;5042214;28;20034;-38
2022/09/03 05:05:58;;;;;;;9.07;3.60;;;;;;;16.41;54.02;100943.59;5042986;28;20029;-38
2022/09/03 05:08:25;;;;;;;11.70;3.78;;;;;;;16.33;54.35;100949.28;5041077;28;20050;-38
2022/09/03 05:10:59;;;;;;;6.88;3.72;;;;;;;16.36;54.33;100951.56;5026641;28;20089;-38
2022/09/03 05:13:25;;;;;;;13.30;4.07;;;;;;;16.33;54.46;100946.56;5015572;28;20057;-38
2022/09/03 05:15:51;;;;;;;11.40;3.85;;;;;;;16.30;54.52;100945.13;5024662;28;20048;-39
2022/09/03 05:18:16;;;;;;;8.05;3.90;;;;;;;16.32;54.82;100945.72;5026233;28;20116;-39
2022/09/03 05:20:42;;;;;;;15.15;4.07;;;;;;;16.30;54.49;100942.41;5035453;28;20061;-38
2022/09/03 05:23:07;;;;;;;12.27;4.35;;;;;;;16.35;54.72;100950.75;5040338;28;20033;-38
2022/09/03 05:25:33;;;;;;;10.32;4.10;;;;;;;16.40;54.62;100950.06;5042682;28;20528;-39
2022/09/03 05:27:58;;;;;;;7.85;3.88;;;;;;;16.41;54.68;100949.84;5042418;28;20452;-38
2022/09/03 05:30:24;;;;;;;6.63;4.22;;;;;;;16.46;54.60;100952.75;5033581;28;20038;-39
2022/09/03 05:32:50;;;;;;;18.33;4.25;;;;;;;16.58;54.47;100954.75;5043046;28;20025;-40
2022/09/03 05:35:15;;;;;;;8.48;3.92;;;;;;;16.96;53.56;100945.75;5044400;28;20025;-39
2022/09/03 05:37:40;;;;;;;13.02;4.22;;;;;;;17.40;52.55;100952.03;5043420;28;20021;-38
2022/09/03 05:40:09;;;;;;;6.72;4.03;;;;;;;17.94;51.35;100947.72;5044841;28;20041;-40
2022/09/03 05:42:36;;;;;;;9.40;4.30;;;;;;;18.59;49.11;100944.34;5045222;28;20029;-39
2022/09/03 05:45:04;;;;;;;9.52;4.15;;;;;;;19.10;47.46;100948.38;5044761;28;20030;-40
2022/09/03 05:47:30;;;;;;;7.85;3.85;;;;;;;19.39;47.03;100948.50;5046771;28;20034;-39
2022/09/03 05:49:55;;;;;;;6.28;4.15;;;;;;;19.49;46.84;100949.56;5046581;28;20032;-41
2022/09/03 05:52:22;;;;;;;9.88;4.03;;;;;;;20.02;46.14;100947.72;5044382;28;20056;-40
2022/09/03 05:54:47;;;;;;;10.27;4.70;;;;;;;20.15;45.16;100954.81;5046554;28;20179;-40
2022/09/03 05:57:13;;;;;;;11.90;4.68;;;;;;;20.30;44.71;100952.38;5046235;28;20029;-39
2022/09/03 05:59:38;;;;;;;13.15;4.50;;;;;;;20.27;44.38;100949.28;5043081;28;20052;-41
2022/09/03 06:02:05;;;;;;;9.32;4.40;;;;;;;20.21;45.16;100961.19;5042641;28;20105;-40
2022/09/03 06:04:30;;;;;;;8.70;4.47;;;;;;;20.43;44.27;100955.88;5044140;28;20076;-39
2022/09/03 06:06:55;;;;;;;13.02;4.70;;;;;;;20.80;44.16;100951.66;5045126;28;20072;-40
2022/09/03 06:09:21;;;;;;;8.40;4.20;;;;;;;21.19;43.62;100959.94;5043430;28;20063;-39
2022/09/03 06:11:48;;;;;;;13.80;5.03;;;;;;;21.23;42.86;100963.84;5039612;28;20042;-39
2022/09/03 06:14:14;;;;;;;13.95;4.43;;;;;;;20.68;43.30;100961.00;5036289;28;20038;-40
2022/09/03 06:16:41;;;;;;;11.68;4.10;;;;;;;20.32;44.05;100963.88;5036690;28;20033;-39
2022/09/03 06:19:12;;;;;;;17.88;5.35;;;;;;;19.39;46.47;100968.44;5040481;28;20026;-40
2022/09/03 06:21:41;;;;;;;15.32;4.75;;;;;;;19.18;47.60;100979.94;5041964;28;20603;-40
2022/09/03 06:24:07;;;;;;;14.90;5.10;;;;;;;18.96;48.12;100966.03;5036593;28;20089;-38
2022/09/03 06:26:33;;;;;;;10.85;4.70;;;;;;;18.60;49.15;100968.63;5039279;28;20106;-38
2022/09/03 06:28:58;;;;;;;14.82;5.13;;;;;;;18.52;49.67;100976.31;5040895;28;20449;-41
2022/09/03 06:31:24;;;;;;;9.35;4.47;;;;;;;18.47;49.96;100966.09;5035783;28;20033;-39
2022/09/03 06:33:51;;;;;;;12.45;5.00;;;;;;;18.30;50.33;100967.78;5028208;28;20038;-40
2022/09/03 06:36:18;;;;;;;13.07;5.32;;;;;;;18.31;50.83;100964.00;5021213;28;20064;-38
2022/09/03 06:38:44;;;;;;;14.65;5.55;;;;;;;18.21;50.91;100970.81;5021230;28;20029;-38
2022/09/03 06:41:12;;;;;;;7.68;4.53;;;;;;;17.93;51.42;100962.38;5034200;28;20064;-38
2022/09/03 06:43:41;;;;;;;;;;;;;;;18.04;51.70;100964.34;5041720;28;20057;-38
2022/09/03 06:46:11;;;;;;;9.27;4.47;;;;;;;18.95;50.52;100965.19;5043112;28;19913;-38
2022/09/03 06:48:38;;;;;;;10.35;4.38;;;;;;;20.09;47.25;100974.88;5044913;28;20029;-38
2022/09/03 06:51:06;;;;;;;9.82;4.20;;;;;;;21.11;44.68;100970.50;5045999;28;20025;-39
2022/09/03 06:53:37;;;;;;;11.82;4.30;;;;;;;22.18;40.87;100973.94;5043793;28;20092;-39
2022/09/03 06:56:05;;;;;;;19.05;5.05;;;;;;;22.70;40.56;100981.69;5048456;28;20075;-38
2022/09/03 06:58:34;;;;;;;9.23;4.40;;;;;;;23.59;38.47;100988.44;5048560;28;20029;-38
2022/09/03 07:01:21;;;;;;;11.13;4.40;;;;;;;23.54;37.95;100991.16;5047827;28;20063;-39
2022/09/03 07:03:47;;;;;;;11.93;5.03;;;;;;;24.27;36.40;100981.09;5047071;28;20093;-39
2022/09/03 07:06:15;;;;;;;10.98;4.35;;;;;;;24.65;35.68;100989.22;5048723;28;20088;-40
2022/09/03 07:08:41;;;;;;;8.38;4.07;;;;;;;25.13;34.74;100984.28;5047424;28;20372;-41
2022/09/03 07:11:12;;;;;;;9.35;4.20;;;;;;;25.49;34.25;100979.59;5048920;28;20062;-39
2022/09/03 07:13:43;;;;;;;12.68;3.85;;;;;;;25.33;34.46;100989.81;5048381;28;20033;-40
2022/09/03 07:16:17;;;;;;;11.93;4.10;;;;;;;25.30;33.94;100984.84;5030120;28;20112;-39
2022/09/03 07:18:43;;;;;;;14.45;4.22;;;;;;;25.59;34.26;100982.34;5047548;28;20025;-40
2022/09/03 07:21:11;;;;;;;12.43;4.25;;;;;;;25.89;34.43;100986.13;5024890;28;20070;-39
2022/09/03 07:23:37;;;;;;;7.82;4.10;;;;;;;26.30;32.54;100982.34;5047572;28;20085;-39
2022/09/03 07:26:08;;;;;;;17.80;4.30;;;;;;;26.94;32.44;100989.72;5047345;28;20060;-39
2022/09/03 07:28:35;;;;;;;11.68;4.22;;;;;;;26.16;32.57;100990.44;5042612;28;20025;-40
2022/09/03 07:31:05;;;;;;;;;;;;;;;26.30;32.67;100983.19;5046337;28;20036;-36
2022/09/03 07:33:30;;;;;;;10.30;4.47;;;;;;;26.48;32.56;100985.28;5044300;28;20335;-39
2022/09/03 07:36:01;;;;;;;14.30;4.35;;;;;;;27.21;31.63;100985.66;5045603;28;20025;-39
2022/09/03 07:38:27;;;;;;;16.80;3.80;;;;;;;28.12;30.48;100983.84;5046954;28;20528;-38
2022/09/03 07:40:59;;;;;;;7.40;3.60;;;;;;;28.15;29.78;100988.78;5046507;28;20060;-40
2022/09/03 07:43:29;;;;;;;10.07;4.68;;;;;;;27.97;30.68;100995.09;5046306;28;20045;-40
2022/09/03 07:45:55;;;;;;;10.02;4.07;;;;;;;27.98;30.54;100992.03;5045914;28;20458;-37
2022/09/03 07:48:21;;;;;;;9.95;3.90;;;;;;;27.54;31.24;100987.53;5045332;28;20364;-38
2022/09/03 07:50:47;;;;;;;12.43;4.50;;;;;;;27.84;30.09;100987.53;5045114;28;20053;-39
2022/09/03 07:53:14;;;;;;;11.70;4.43;;;;;;;27.16;31.16;100986.47;5045626;28;20065;-39
2022/09/03 07:55:40;;;;;;;14.48;4.80;;;;;;;27.65;31.32;100982.72;5045000;28;20025;-38
2022/09/03 07:58:06;;;;;;;12.25;4.28;;;;;;;27.41;30.99;100987.38;5038903;28;20039;-40
2022/09/03 08:00:32;;;;;;;6.47;4.07;;;;;;;27.80;30.60;100995.53;5045564;28;20038;-39
2022/09/03 08:03:04;;;;;;;11.67;5.27;;;;;;;28.16;29.85;100998.72;5045791;28;20025;-40
2022/09/03 08:05:31;;;;;;;8.75;4.32;;;;;;;28.60;29.06;100997.59;5043807;28;20025;-39
2022/09/03 08:07:59;;;;;;;16.58;4.40;;;;;;;28.65;29.90;101003.06;5043904;28;20021;-39
2022/09/03 08:10:27;;;;;;;7.93;3.88;;;;;;;29.24;28.77;101005.47;5045746;28;20033;-41
2022/09/03 08:12:52;;;;;;;8.05;3.72;;;;;;;29.30;28.76;101004.25;5045170;28;20034;-38
2022/09/03 08:15:18;;;;;;;9.10;3.77;;;;;;;29.82;28.12;100995.84;5043120;28;20523;-40
2022/09/03 08:17:43;;;;;;;8.55;3.75;;;;;;;29.15;28.81;101012.84;5043249;28;20492;-38
2022/09/03 08:20:10;;;;;;;;;;;;;;;29.77;27.64;101018.97;5045779;28;20076;-39
2022/09/03 08:22:36;;;;;;;12.07;4.07;;;;;;;29.41;28.86;101025.16;5045097;28;19916;-39
2022/09/03 08:25:02;;;;;;;12.27;3.90;;;;;;;29.76;28.96;101017.31;5041836;28;20103;-41
2022/09/03 08:27:29;;;;;;;15.67;3.90;;;;;;;30.70;27.02;101006.72;5036205;28;20029;-37
2022/09/03 08:29:54;;;;;;;;;;;;;;;30.06;27.80;101015.06;5043937;28;20060;-37
2022/09/03 08:32:19;;;;;;;11.50;4.40;;;;;;;30.48;27.81;101004.75;5043755;28;20458;-38
2022/09/03 08:34:45;;;;;;;11.43;4.10;;;;;;;29.83;27.79;101012.16;5040159;28;20504;-41
2022/09/03 08:37:12;;;;;;;7.40;4.00;;;;;;;30.46;27.82;101013.38;5040785;28;20469;-39
2022/09/03 08:39:37;;;;;;;11.93;3.92;;;;;;;31.30;27.06;101011.13;5040772;28;20104;-39
2022/09/03 08:42:43;;;;;;;9.07;4.10;;;;;;;31.42;25.69;101009.44;5042733;28;20072;-39
2022/09/03 08:45:09;;;;;;;10.82;4.03;;;;;;;31.86;25.64;101024.38;5043485;28;20053;-39
2022/09/03 08:47:39;;;;;;;;;;;;;;;30.48;27.49;101018.63;5040831;28;20083;-39
2022/09/03 08:50:25;;;;;;;12.88;3.88;;;;;;;29.97;28.29;101009.41;5039848;28;19909;-40
2022/09/03 08:53:16;;;;;;;12.48;3.97;;;;;;;30.43;28.15;101019.56;5039215;28;20083;-39
2022/09/03 08:55:54;;;;;;;10.52;4.13;;;;;;;30.97;27.34;101025.31;5041372;28;20029;-38
2022/09/03 08:58:24;;;;;;;15.98;3.90;;;;;;;31.33;26.55;101013.28;5021749;28;20378;-39
2022/09/03 09:01:00;;;;;;;16.38;4.55;;;;;;;31.19;26.95;101019.72;5037347;28;20047;-39
2022/09/03 09:03:47;;;;;;;10.00;3.88;;;;;;;31.49;26.58;101017.31;5039164;28;20132;-39
2022/09/03 09:06:29;;;;;;;13.98;4.43;;;;;;;30.02;27.76;101020.41;5037431;28;20018;-39
2022/09/03 09:08:57;;;;;;;8.38;3.85;;;;;;;30.48;27.63;101019.44;5034167;28;20049;-38
2022/09/03 09:11:49;;;;;;;9.13;3.78;;;;;;;30.99;26.85;101015.53;5044089;28;20033;-38
2022/09/03 09:14:22;;;;;;;9.48;3.95;;;;;;;30.93;26.68;101022.31;5042111;28;20035;-39
2022/09/03 09:16:59;;;;;;;9.95;4.18;;;;;;;31.00;26.42;101030.22;5043240;28;20030;-38
2022/09/03 09:19:38;;;;;;;7.45;4.45;;;;;;;31.28;26.44;101028.13;5043872;28;20412;-38
2022/09/03 09:22:13;;;;;;;14.60;4.38;;;;;;;31.26;26.23;101025.66;5042336;28;20108;-39
2022/09/03 09:24:46;;;;;;;8.98;4.32;;;;;;;32.08;25.31;101020.72;5041173;28;20026;-39
2022/09/03 09:27:17;;;;;;;8.77;3.58;;;;;;;32.15;25.21;101025.81;5055046;28;20500;-39
2022/09/03 09:29:45;;;;;;;9.80;3.53;;;;;;;31.75;25.43;101019.41;5041440;28;20495;-38
2022/09/03 09:32:11;;;;;;;12.02;3.67;;;;;;;31.15;26.53;101029.84;5040292;28;20021;-38
2022/09/03 09:34:37;;;;;;;16.37;5.03;;;;;;;30.60;27.16;101018.91;5040723;28;20075;-39
2022/09/03 09:37:07;;;;;;;7.63;3.30;;;;;;;31.46;26.60;101023.53;5021970;28;20049;-39
2022/09/03 09:39:32;;;;;;;10.40;3.90;;;;;;;31.27;26.36;101032.88;5040069;28;20112;-39
2022/09/03 09:42:08;;;;;;;14.40;4.00;;;;;;;30.73;27.11;101023.63;5038737;28;20057;-40
2022/09/03 09:44:34;;;;;;;9.93;4.30;;;;;;;30.78;27.30;101020.72;5037780;28;20121;-39
2022/09/03 09:47:09;;;;;;;14.85;4.38;;;;;;;30.70;27.17;101021.47;5038943;28;20377;-37
2022/09/03 09:49:38;;;;;;;11.93;3.65;;;;;;;31.49;26.17;101023.72;5041588;28;20029;-42
2022/09/03 09:52:10;;;;;;;9.35;3.50;;;;;;;31.48;26.49;101012.91;5038710;28;20100;-39
2022/09/03 09:54:36;;;;;;;14.23;4.15;;;;;;;31.30;26.36;101019.47;5039032;28;20056;-39
2022/09/03 09:57:03;;;;;;;9.30;3.30;;;;;;;31.52;25.93;101019.47;5023752;28;20033;-39
2022/09/03 09:59:30;;;;;;;11.90;3.40;;;;;;;31.16;27.42;101025.13;5040798;28;20030;-39
2022/09/03 10:02:13;;;;;;;8.68;4.20;;;;;;;30.29;27.67;101014.03;5042393;28;20029;-38
2022/09/03 10:04:39;;;;;;;10.23;3.80;;;;;;;29.37;29.20;101013.00;5041299;28;20036;-38
2022/09/03 10:07:25;;;;;;;17.50;3.47;;;;;;;28.41;30.53;101016.09;5041459;28;20113;-38
2022/09/03 10:10:06;;;;;;;6.43;3.60;;;;;;;27.73;31.88;101012.50;5038911;28;20160;-40
2022/09/03 10:12:44;;;;;;;10.82;4.35;;;;;;;27.23;32.54;101014.63;5040649;28;20366;-39
2022/09/03 10:15:32;;;;;;;11.00;4.50;;;;;;;26.24;34.55;101021.00;5037600;28;20040;-38
2022/09/03 10:18:27;;;;;;;15.32;4.50;;;;;;;26.19;35.28;101007.22;5041944;28;20038;-37
2022/09/03 10:20:57;;;;;;;10.65;3.70;;;;;;;25.79;35.82;101008.19;5023017;28;20030;-37
2022/09/03 10:23:26;;;;;;;14.82;4.95;;;;;;;25.61;36.10;101010.41;5030564;28;20083;-37
2022/09/03 10:25:52;;;;;;;13.10;3.83;;;;;;;25.72;36.20;101007.66;5032854;28;20085;-39
2022/09/03 10:28:25;;;;;;;15.07;4.68;;;;;;;25.41;36.35;101007.72;5042674;28;20079;-37
2022/09/03 10:31:01;;;;;;;9.63;3.92;;;;;;;25.54;37.03;101004.38;5045526;28;20040;-38
2022/09/03 10:33:33;;;;;;;15.10;4.38;;;;;;;25.46;36.57;101002.19;5033801;28;20128;-39
2022/09/03 10:36:15;;;;;;;17.40;4.38;;;;;;;25.30;36.77;101003.31;5044090;28;20037;-37
2022/09/03 10:38:42;;;;;;;12.75;3.65;;;;;;;25.17;38.28;101008.28;5045948;28;20075;-39
2022/09/03 10:41:33;;;;;;;17.02;4.18;;;;;;;25.65;36.66;101001.63;5043442;28;20549;-39
2022/09/03 10:44:21;;;;;;;8.35;3.88;;;;;;;26.11;36.19;101007.81;5045555;28;20033;-39
2022/09/03 10:47:17;;;;;;;9.25;4.00;;;;;;;25.97;36.20;101002.09;5043536;28;20032;-39
2022/09/03 10:50:02;;;;;;;7.53;3.50;;;;;;;26.10;35.44;101008.13;5044090;28;20037;-37
2022/09/03 10:52:40;;;;;;;7.15;4.20;;;;;;;25.98;35.47;101012.00;5026233;28;20026;-37
2022/09/03 10:55:19;;;;;;;;;;;;;;;25.84;36.29;101010.97;5043219;28;20026;-40
2022/09/03 10:57:52;;;;;;;6.95;3.90;;;;;;;25.67;36.50;101005.72;5043990;28;19919;-37
2022/09/03 11:00:18;;;;;;;13.02;3.67;;;;;;;25.48;37.14;101002.72;5044447;28;20025;-40
2022/09/03 11:03:11;;;;;;;8.55;3.30;;;;;;;26.02;34.92;101012.28;5045003;28;20052;-38
2022/09/03 11:05:55;;;;;;;8.68;3.33;;;;;;;26.16;35.39;101012.50;5046189;28;20057;-38
2022/09/03 11:08:33;;;;;;;8.20;3.80;;;;;;;26.94;33.41;101006.28;5045276;28;20049;-38
2022/09/03 11:11:11;;;;;;;9.73;3.83;;;;;;;27.74;31.52;101010.53;5043734;28;20102;-39
2022/09/03 11:13:45;;;;;;;8.13;3.42;;;;;;;28.11;31.71;101020.09;5042952;28;20156;-38
2022/09/03 11:16:17;;;;;;;8.10;3.00;;;;;;;28.59;29.92;101022.81;5044721;28;20061;-38
2022/09/03 11:18:50;;;;;;;12.05;3.40;;;;;;;29.27;29.42;101027.88;5045069;28;20039;-40
2022/09/03 11:21:19;;;;;;;13.77;3.22;;;;;;;29.67;28.33;101019.16;5046985;28;20117;-38
2022/09/03 11:23:47;;;;;;;9.43;3.53;;;;;;;28.98;28.96;101019.72;5046668;28;20033;-39
2022/09/03 11:26:15;;;;;;;8.23;3.03;;;;;;;29.75;29.18;101015.66;5045915;28;20068;-39
2022/09/03 11:28:59;;;;;;;10.18;3.08;;;;;;;30.75;27.42;101015.75;5040905;28;20029;-40
2022/09/03 11:31:58;;;;;;;7.43;3.35;;;;;;;31.41;25.40;101015.31;5044646;28;20144;-40
2022/09/03 11:34:24;;;;;;;10.32;3.00;;;;;;;31.62;25.66;101013.63;5031816;28;20112;-39
2022/09/03 11:36:50;;;;;;;11.43;3.13;;;;;;;31.87;25.11;101016.84;5047877;28;20047;-39
2022/09/03 11:39:35;;;;;;;12.63;2.87;;;;;;;32.45;25.41;101009.31;5050032;28;20057;-39
2022/09/03 11:42:12;;;;;;;9.60;3.10;;;;;;;32.69;23.95;101020.03;5041319;28;20053;-39